sensor_id;sensor_type;location;lat;lon;timestamp;temperature;humidity
15666;DHT22;20725;51.196;3.510;2022-09-09T00:00:16;15.10;99.90
15666;DHT22;20725;51.196;3.510;2022-09-09T00:02:49;15.00;99.90
15666;DHT22;20725;51.196;3.510;2022-09-09T00:05:19;15.00;99.90
15666;DHT22;20725;51.196;3.510;2022-09-09T00:07:58;15.00;99.90
15666;DHT22;20725;51.196;3.510;2022-09-09T00:10:27;15.00;99.90
15666;DHT22;20725;51.196;3.510;2022-09-09T00:12:55;15.00;99.90
15666;DHT22;20725;51.196;3.510;2022-09-09T00:15:26;15.00;99.90
15666;DHT22;20725;51.196;3.510;2022-09-09T00:17:56;15.00;99.90
15666;DHT22;20725;51.196;3.510;2022-09-09T00:20:28;14.90;99.90
15666;DHT22;20725;51.196;3.510;2022-09-09T00:22:57;14.90;99.90
15666;DHT22;20725;51.196;3.510;2022-09-09T00:25:27;14.90;99.90
15666;DHT22;20725;51.196;3.510;2022-09-09T00:27:56;14.80;99.90
15666;DHT22;20725;51.196;3.510;2022-09-09T00:30:23;14.80;99.90
15666;DHT22;20725;51.196;3.510;2022-09-09T00:32:53;14.80;99.90
15666;DHT22;20725;51.196;3.510;2022-09-09T00:35:24;14.80;99.90
15666;DHT22;20725;51.196;3.510;2022-09-09T00:37:53;14.80;99.90
15666;DHT22;20725;51.196;3.510;2022-09-09T00:40:25;14.80;99.90
15666;DHT22;20725;51.196;3.510;2022-09-09T00:42:54;14.80;99.90
15666;DHT22;20725;51.196;3.510;2022-09-09T00:45:33;14.80;99.90
15666;DHT22;20725;51.196;3.510;2022-09-09T00:48:03;14.80;99.90
15666;DHT22;20725;51.196;3.510;2022-09-09T00:50:36;14.80;99.90
15666;DHT22;20725;51.196;3.510;2022-09-09T00:53:11;14.70;99.90
15666;DHT22;20725;51.196;3.510;2022-09-09T00:55:40;14.70;99.90
15666;DHT22;20725;51.196;3.510;2022-09-09T00:58:08;14.70;99.90
15666;DHT22;20725;51.196;3.510;2022-09-09T01:00:35;14.70;99.90
15666;DHT22;20725;51.196;3.510;2022-09-09T01:03:10;14.70;99.90
15666;DHT22;20725;51.196;3.510;2022-09-09T01:05:44;14.70;99.90
15666;DHT22;20725;51.196;3.510;2022-09-09T01:08:22;14.70;99.90
15666;DHT22;20725;51.196;3.510;2022-09-09T01:10:55;14.70;99.90
15666;DHT22;20725;51.196;3.510;2022-09-09T01:13:24;14.70;99.90
15666;DHT22;20725;51.196;3.510;2022-09-09T01:15:52;14.80;99.90
15666;DHT22;20725;51.196;3.510;2022-09-09T01:18:20;14.80;99.90
15666;DHT22;20725;51.196;3.510;2022-09-09T01:20:53;14.70;99.90
15666;DHT22;20725;51.196;3.510;2022-09-09T01:28:45;14.60;99.90
15666;DHT22;20725;51.196;3.510;2022-09-09T01:31:15;14.60;99.90
15666;DHT22;20725;51.196;3.510;2022-09-09T01:33:43;14.60;99.90
15666;DHT22;20725;51.196;3.510;2022-09-09T01:36:10;14.60;99.90
15666;DHT22;20725;51.196;3.510;2022-09-09T01:38:40;14.50;99.90
15666;DHT22;20725;51.196;3.510;2022-09-09T01:41:07;14.60;99.90
15666;DHT22;20725;51.196;3.510;2022-09-09T01:43:34;14.60;99.90
15666;DHT22;20725;51.196;3.510;2022-09-09T01:46:02;14.60;99.90
15666;DHT22;20725;51.196;3.510;2022-09-09T01:48:29;14.60;99.90
15666;DHT22;20725;51.196;3.510;2022-09-09T01:50:56;14.60;99.90
15666;DHT22;20725;51.196;3.510;2022-09-09T01:53:23;14.60;99.90
15666;DHT22;20725;51.196;3.510;2022-09-09T01:55:53;14.60;99.90
15666;DHT22;20725;51.196;3.510;2022-09-09T01:58:26;14.60;99.90
15666;DHT22;20725;51.196;3.510;2022-09-09T02:03:32;14.70;99.90
15666;DHT22;20725;51.196;3.510;2022-09-09T02:06:01;14.70;99.90
15666;DHT22;20725;51.196;3.510;2022-09-09T02:08:33;14.70;99.90
15666;DHT22;20725;51.196;3.510;2022-09-09T02:11:03;14.70;99.90
15666;DHT22;20725;51.196;3.510;2022-09-09T02:13:32;14.70;99.90
15666;DHT22;20725;51.196;3.510;2022-09-09T02:16:01;14.70;99.90
15666;DHT22;20725;51.196;3.510;2022-09-09T02:18:34;14.70;99.90
15666;DHT22;20725;51.196;3.510;2022-09-09T02:21:01;14.80;99.90
15666;DHT22;20725;51.196;3.510;2022-09-09T02:23:29;14.80;99.90
15666;DHT22;20725;51.196;3.510;2022-09-09T02:25:56;14.80;99.90
15666;DHT22;20725;51.196;3.510;2022-09-09T02:28:24;14.90;99.90
15666;DHT22;20725;51.196;3.510;2022-09-09T02:30:52;14.90;99.90
15666;DHT22;20725;51.196;3.510;2022-09-09T02:33:21;14.90;99.90
15666;DHT22;20725;51.196;3.510;2022-09-09T02:35:51;15.00;99.90
15666;DHT22;20725;51.196;3.510;2022-09-09T02:38:18;15.00;99.90
15666;DHT22;20725;51.196;3.510;2022-09-09T02:40:45;15.00;99.90
15666;DHT22;20725;51.196;3.510;2022-09-09T02:43:13;15.00;99.90
15666;DHT22;20725;51.196;3.510;2022-09-09T02:45:42;15.00;99.90
15666;DHT22;20725;51.196;3.510;2022-09-09T02:48:14;15.10;99.90
15666;DHT22;20725;51.196;3.510;2022-09-09T02:50:43;15.10;99.90
15666;DHT22;20725;51.196;3.510;2022-09-09T02:53:18;15.10;99.90
15666;DHT22;20725;51.196;3.510;2022-09-09T02:55:46;15.10;99.90
15666;DHT22;20725;51.196;3.510;2022-09-09T02:58:17;15.10;99.90
15666;DHT22;20725;51.196;3.510;2022-09-09T03:00:45;15.10;99.90
15666;DHT22;20725;51.196;3.510;2022-09-09T03:03:12;15.10;99.90
15666;DHT22;20725;51.196;3.510;2022-09-09T03:05:41;15.10;99.90
15666;DHT22;20725;51.196;3.510;2022-09-09T03:08:08;15.10;99.90
15666;DHT22;20725;51.196;3.510;2022-09-09T03:10:36;15.10;99.90
15666;DHT22;20725;51.196;3.510;2022-09-09T03:13:03;15.10;99.90
15666;DHT22;20725;51.196;3.510;2022-09-09T03:15:30;15.20;99.90
15666;DHT22;20725;51.196;3.510;2022-09-09T03:17:57;15.20;99.90
15666;DHT22;20725;51.196;3.510;2022-09-09T03:20:24;15.10;99.90
15666;DHT22;20725;51.196;3.510;2022-09-09T03:22:51;15.10;99.90
15666;DHT22;20725;51.196;3.510;2022-09-09T03:25:18;15.10;99.90
15666;DHT22;20725;51.196;3.510;2022-09-09T03:27:46;15.10;99.90
15666;DHT22;20725;51.196;3.510;2022-09-09T03:30:13;15.10;99.90
15666;DHT22;20725;51.196;3.510;2022-09-09T03:32:40;15.00;99.90
15666;DHT22;20725;51.196;3.510;2022-09-09T03:35:07;15.10;99.90
15666;DHT22;20725;51.196;3.510;2022-09-09T03:37:34;15.00;99.90
15666;DHT22;20725;51.196;3.510;2022-09-09T03:40:01;15.10;99.90
15666;DHT22;20725;51.196;3.510;2022-09-09T03:42:28;15.10;99.90
15666;DHT22;20725;51.196;3.510;2022-09-09T03:44:57;15.10;99.90
15666;DHT22;20725;51.196;3.510;2022-09-09T03:47:24;15.00;99.90
15666;DHT22;20725;51.196;3.510;2022-09-09T03:49:51;15.10;99.90
15666;DHT22;20725;51.196;3.510;2022-09-09T03:52:18;15.10;99.90
15666;DHT22;20725;51.196;3.510;2022-09-09T03:54:47;15.10;99.90
15666;DHT22;20725;51.196;3.510;2022-09-09T03:57:13;15.10;99.90
15666;DHT22;20725;51.196;3.510;2022-09-09T03:59:42;15.10;99.90
15666;DHT22;20725;51.196;3.510;2022-09-09T04:02:10;15.10;99.90
15666;DHT22;20725;51.196;3.510;2022-09-09T04:04:37;15.10;99.90
15666;DHT22;20725;51.196;3.510;2022-09-09T04:07:04;15.10;99.90
15666;DHT22;20725;51.196;3.510;2022-09-09T04:09:32;15.10;99.90
15666;DHT22;20725;51.196;3.510;2022-09-09T04:11:58;15.10;99.90
15666;DHT22;20725;51.196;3.510;2022-09-09T04:14:25;15.10;99.90
15666;DHT22;20725;51.196;3.510;2022-09-09T04:16:53;15.10;99.90
15666;DHT22;20725;51.196;3.510;2022-09-09T04:19:22;15.10;99.90
15666;DHT22;20725;51.196;3.510;2022-09-09T04:21:48;15.00;99.90
15666;DHT22;20725;51.196;3.510;2022-09-09T04:24:16;15.00;99.90
15666;DHT22;20725;51.196;3.510;2022-09-09T04:26:44;14.70;99.90
15666;DHT22;20725;51.196;3.510;2022-09-09T04:29:10;14.70;99.90
15666;DHT22;20725;51.196;3.510;2022-09-09T04:31:37;14.30;99.90
15666;DHT22;20725;51.196;3.510;2022-09-09T04:34:07;14.30;99.90
15666;DHT22;20725;51.196;3.510;2022-09-09T04:36:35;14.20;99.90
15666;DHT22;20725;51.196;3.510;2022-09-09T04:39:04;14.10;99.90
15666;DHT22;20725;51.196;3.510;2022-09-09T04:41:31;14.20;99.90
15666;DHT22;20725;51.196;3.510;2022-09-09T04:43:58;14.20;99.90
15666;DHT22;20725;51.196;3.510;2022-09-09T04:46:26;14.10;99.90
15666;DHT22;20725;51.196;3.510;2022-09-09T04:48:53;14.00;99.90
15666;DHT22;20725;51.196;3.510;2022-09-09T04:51:20;14.00;99.90
15666;DHT22;20725;51.196;3.510;2022-09-09T04:53:48;13.90;99.90
15666;DHT22;20725;51.196;3.510;2022-09-09T04:56:16;13.90;99.90
15666;DHT22;20725;51.196;3.510;2022-09-09T04:58:43;13.90;99.90
15666;DHT22;20725;51.196;3.510;2022-09-09T05:01:11;13.90;99.90
15666;DHT22;20725;51.196;3.510;2022-09-09T05:03:38;13.90;99.90
15666;DHT22;20725;51.196;3.510;2022-09-09T05:06:06;13.90;99.90
15666;DHT22;20725;51.196;3.510;2022-09-09T05:08:36;13.90;99.90
15666;DHT22;20725;51.196;3.510;2022-09-09T05:11:11;13.90;99.90
15666;DHT22;20725;51.196;3.510;2022-09-09T05:13:38;13.70;99.90
15666;DHT22;20725;51.196;3.510;2022-09-09T05:16:05;13.90;99.90
15666;DHT22;20725;51.196;3.510;2022-09-09T05:18:32;13.80;99.90
15666;DHT22;20725;51.196;3.510;2022-09-09T05:20:59;13.90;99.90
15666;DHT22;20725;51.196;3.510;2022-09-09T05:23:26;13.90;99.90
15666;DHT22;20725;51.196;3.510;2022-09-09T05:25:54;13.80;99.90
15666;DHT22;20725;51.196;3.510;2022-09-09T05:28:23;14.00;99.90
15666;DHT22;20725;51.196;3.510;2022-09-09T05:30:57;13.90;99.90
15666;DHT22;20725;51.196;3.510;2022-09-09T05:33:25;14.10;99.90
15666;DHT22;20725;51.196;3.510;2022-09-09T05:35:56;14.20;99.90
15666;DHT22;20725;51.196;3.510;2022-09-09T05:38:23;14.20;99.90
15666;DHT22;20725;51.196;3.510;2022-09-09T05:40:50;13.70;99.90
15666;DHT22;20725;51.196;3.510;2022-09-09T05:43:17;14.20;99.90
15666;DHT22;20725;51.196;3.510;2022-09-09T05:45:46;13.70;99.90
15666;DHT22;20725;51.196;3.510;2022-09-09T05:48:17;14.00;99.90
15666;DHT22;20725;51.196;3.510;2022-09-09T05:50:52;14.20;99.90
15666;DHT22;20725;51.196;3.510;2022-09-09T05:53:22;14.40;99.90
15666;DHT22;20725;51.196;3.510;2022-09-09T05:56:10;14.30;99.90
15666;DHT22;20725;51.196;3.510;2022-09-09T05:58:37;14.40;99.90
15666;DHT22;20725;51.196;3.510;2022-09-09T06:01:07;14.20;99.90
15666;DHT22;20725;51.196;3.510;2022-09-09T06:06:44;14.40;99.90
15666;DHT22;20725;51.196;3.510;2022-09-09T06:09:11;14.50;99.90
15666;DHT22;20725;51.196;3.510;2022-09-09T06:11:39;14.20;99.90
15666;DHT22;20725;51.196;3.510;2022-09-09T06:14:06;14.20;99.90
15666;DHT22;20725;51.196;3.510;2022-09-09T06:16:42;14.70;99.90
15666;DHT22;20725;51.196;3.510;2022-09-09T06:19:12;14.50;99.90
15666;DHT22;20725;51.196;3.510;2022-09-09T06:21:45;14.10;99.90
15666;DHT22;20725;51.196;3.510;2022-09-09T06:24:13;14.30;99.90
15666;DHT22;20725;51.196;3.510;2022-09-09T06:26:42;14.70;99.90
15666;DHT22;20725;51.196;3.510;2022-09-09T06:29:10;14.40;99.90
15666;DHT22;20725;51.196;3.510;2022-09-09T06:31:39;14.30;99.90
15666;DHT22;20725;51.196;3.510;2022-09-09T06:34:07;14.50;99.90
15666;DHT22;20725;51.196;3.510;2022-09-09T06:36:34;14.60;99.90
15666;DHT22;20725;51.196;3.510;2022-09-09T06:39:02;14.80;99.90
15666;DHT22;20725;51.196;3.510;2022-09-09T06:41:30;14.90;99.90
15666;DHT22;20725;51.196;3.510;2022-09-09T06:43:59;14.90;99.90
15666;DHT22;20725;51.196;3.510;2022-09-09T06:46:27;15.20;99.90
15666;DHT22;20725;51.196;3.510;2022-09-09T06:48:57;15.10;99.90
15666;DHT22;20725;51.196;3.510;2022-09-09T06:51:26;15.20;99.90
15666;DHT22;20725;51.196;3.510;2022-09-09T06:53:53;15.10;99.90
15666;DHT22;20725;51.196;3.510;2022-09-09T06:56:22;15.20;99.90
15666;DHT22;20725;51.196;3.510;2022-09-09T06:58:49;15.20;99.90
15666;DHT22;20725;51.196;3.510;2022-09-09T07:01:32;15.30;99.90
15666;DHT22;20725;51.196;3.510;2022-09-09T07:04:15;15.50;99.90
15666;DHT22;20725;51.196;3.510;2022-09-09T07:06:44;15.30;99.90
15666;DHT22;20725;51.196;3.510;2022-09-09T07:09:13;15.20;99.90
15666;DHT22;20725;51.196;3.510;2022-09-09T07:11:42;15.30;99.90
15666;DHT22;20725;51.196;3.510;2022-09-09T07:14:10;15.00;99.90
15666;DHT22;20725;51.196;3.510;2022-09-09T07:16:39;14.70;99.90
15666;DHT22;20725;51.196;3.510;2022-09-09T07:19:07;15.10;99.90
15666;DHT22;20725;51.196;3.510;2022-09-09T07:21:53;14.80;99.90
15666;DHT22;20725;51.196;3.510;2022-09-09T07:24:20;15.30;99.90
15666;DHT22;20725;51.196;3.510;2022-09-09T07:26:48;14.50;99.90
15666;DHT22;20725;51.196;3.510;2022-09-09T07:29:15;14.80;99.90
15666;DHT22;20725;51.196;3.510;2022-09-09T07:31:42;15.00;99.90
15666;DHT22;20725;51.196;3.510;2022-09-09T07:34:09;15.20;99.90
15666;DHT22;20725;51.196;3.510;2022-09-09T07:36:37;14.80;99.90
15666;DHT22;20725;51.196;3.510;2022-09-09T07:39:07;15.10;99.90
15666;DHT22;20725;51.196;3.510;2022-09-09T07:41:36;14.90;99.90
15666;DHT22;20725;51.196;3.510;2022-09-09T07:44:05;15.00;99.90
15666;DHT22;20725;51.196;3.510;2022-09-09T07:46:36;15.00;99.90
15666;DHT22;20725;51.196;3.510;2022-09-09T07:49:10;14.90;99.90
15666;DHT22;20725;51.196;3.510;2022-09-09T07:51:39;14.90;99.90
15666;DHT22;20725;51.196;3.510;2022-09-09T07:54:09;14.90;99.90
15666;DHT22;20725;51.196;3.510;2022-09-09T07:56:37;15.00;99.90
15666;DHT22;20725;51.196;3.510;2022-09-09T07:59:04;15.00;99.90
15666;DHT22;20725;51.196;3.510;2022-09-09T08:01:33;15.00;99.90
15666;DHT22;20725;51.196;3.510;2022-09-09T08:04:04;15.10;99.90
15666;DHT22;20725;51.196;3.510;2022-09-09T08:06:34;15.10;99.90
15666;DHT22;20725;51.196;3.510;2022-09-09T08:09:02;15.20;99.90
15666;DHT22;20725;51.196;3.510;2022-09-09T08:11:30;15.20;99.90
15666;DHT22;20725;51.196;3.510;2022-09-09T08:13:58;15.20;99.90
15666;DHT22;20725;51.196;3.510;2022-09-09T08:16:28;15.20;99.90
15666;DHT22;20725;51.196;3.510;2022-09-09T08:18:55;15.20;99.90
15666;DHT22;20725;51.196;3.510;2022-09-09T08:21:24;15.30;99.90
15666;DHT22;20725;51.196;3.510;2022-09-09T08:23:53;15.30;99.90
15666;DHT22;20725;51.196;3.510;2022-09-09T08:26:22;15.40;99.90
15666;DHT22;20725;51.196;3.510;2022-09-09T08:28:52;15.50;99.90
15666;DHT22;20725;51.196;3.510;2022-09-09T08:31:21;15.50;99.90
15666;DHT22;20725;51.196;3.510;2022-09-09T08:33:48;15.50;99.90
15666;DHT22;20725;51.196;3.510;2022-09-09T08:36:16;15.60;99.90
15666;DHT22;20725;51.196;3.510;2022-09-09T08:38:46;15.70;99.90
15666;DHT22;20725;51.196;3.510;2022-09-09T08:41:28;15.90;99.90
15666;DHT22;20725;51.196;3.510;2022-09-09T08:44:06;16.20;99.90
15666;DHT22;20725;51.196;3.510;2022-09-09T08:46:41;16.30;99.90
15666;DHT22;20725;51.196;3.510;2022-09-09T08:49:24;16.30;99.90
15666;DHT22;20725;51.196;3.510;2022-09-09T08:51:59;16.50;99.90
15666;DHT22;20725;51.196;3.510;2022-09-09T08:54:31;16.60;99.90
15666;DHT22;20725;51.196;3.510;2022-09-09T08:57:03;16.80;99.90
15666;DHT22;20725;51.196;3.510;2022-09-09T08:59:32;16.90;99.90
15666;DHT22;20725;51.196;3.510;2022-09-09T09:02:06;17.10;99.90
15666;DHT22;20725;51.196;3.510;2022-09-09T09:05:00;17.40;99.90
15666;DHT22;20725;51.196;3.510;2022-09-09T09:07:42;17.40;99.90
15666;DHT22;20725;51.196;3.510;2022-09-09T09:10:19;17.20;99.90
15666;DHT22;20725;51.196;3.510;2022-09-09T09:12:52;17.30;99.90
15666;DHT22;20725;51.196;3.510;2022-09-09T09:15:26;17.50;99.90
15666;DHT22;20725;51.196;3.510;2022-09-09T09:18:02;17.60;99.90
15666;DHT22;20725;51.196;3.510;2022-09-09T09:20:57;17.90;99.90
15666;DHT22;20725;51.196;3.510;2022-09-09T09:23:34;18.20;99.90
15666;DHT22;20725;51.196;3.510;2022-09-09T09:26:07;18.20;99.90
15666;DHT22;20725;51.196;3.510;2022-09-09T09:28:39;17.80;99.90
15666;DHT22;20725;51.196;3.510;2022-09-09T09:31:12;17.90;99.90
15666;DHT22;20725;51.196;3.510;2022-09-09T09:33:45;17.70;99.90
15666;DHT22;20725;51.196;3.510;2022-09-09T09:36:14;17.70;99.90
15666;DHT22;20725;51.196;3.510;2022-09-09T09:38:52;17.80;99.90
15666;DHT22;20725;51.196;3.510;2022-09-09T09:41:32;18.10;99.90
15666;DHT22;20725;51.196;3.510;2022-09-09T09:44:01;17.90;99.90
15666;DHT22;20725;51.196;3.510;2022-09-09T09:46:35;18.00;99.90
15666;DHT22;20725;51.196;3.510;2022-09-09T09:49:04;18.00;99.90
15666;DHT22;20725;51.196;3.510;2022-09-09T09:51:33;17.80;99.90
15666;DHT22;20725;51.196;3.510;2022-09-09T09:54:13;17.90;99.90
15666;DHT22;20725;51.196;3.510;2022-09-09T09:56:43;18.20;99.90
15666;DHT22;20725;51.196;3.510;2022-09-09T09:59:23;18.50;99.90
15666;DHT22;20725;51.196;3.510;2022-09-09T10:01:53;19.40;99.90
15666;DHT22;20725;51.196;3.510;2022-09-09T10:04:21;20.10;99.90
15666;DHT22;20725;51.196;3.510;2022-09-09T10:06:53;19.90;99.90
15666;DHT22;20725;51.196;3.510;2022-09-09T10:09:27;19.50;99.90
15666;DHT22;20725;51.196;3.510;2022-09-09T10:12:05;19.70;99.90
15666;DHT22;20725;51.196;3.510;2022-09-09T10:14:42;20.20;99.90
15666;DHT22;20725;51.196;3.510;2022-09-09T10:17:23;19.90;99.90
15666;DHT22;20725;51.196;3.510;2022-09-09T10:20:01;19.80;99.90
15666;DHT22;20725;51.196;3.510;2022-09-09T10:22:35;19.50;99.90
15666;DHT22;20725;51.196;3.510;2022-09-09T10:25:27;19.20;99.90
15666;DHT22;20725;51.196;3.510;2022-09-09T10:28:17;19.30;99.90
15666;DHT22;20725;51.196;3.510;2022-09-09T10:30:57;19.50;99.90
15666;DHT22;20725;51.196;3.510;2022-09-09T10:33:36;20.10;99.90
15666;DHT22;20725;51.196;3.510;2022-09-09T10:36:12;20.50;99.90
15666;DHT22;20725;51.196;3.510;2022-09-09T10:38:50;20.30;99.90
15666;DHT22;20725;51.196;3.510;2022-09-09T10:41:30;20.30;99.90
15666;DHT22;20725;51.196;3.510;2022-09-09T10:44:28;19.80;99.90
15666;DHT22;20725;51.196;3.510;2022-09-09T10:47:20;18.30;99.90
15666;DHT22;20725;51.196;3.510;2022-09-09T10:50:18;17.50;99.90
15666;DHT22;20725;51.196;3.510;2022-09-09T10:52:58;17.30;99.90
15666;DHT22;20725;51.196;3.510;2022-09-09T10:55:37;16.60;99.90
15666;DHT22;20725;51.196;3.510;2022-09-09T10:58:27;16.50;99.90
15666;DHT22;20725;51.196;3.510;2022-09-09T11:01:12;16.50;99.90
15666;DHT22;20725;51.196;3.510;2022-09-09T11:04:03;16.70;99.90
15666;DHT22;20725;51.196;3.510;2022-09-09T11:06:41;17.00;99.90
15666;DHT22;20725;51.196;3.510;2022-09-09T11:09:16;16.80;99.90
15666;DHT22;20725;51.196;3.510;2022-09-09T11:11:51;16.60;99.90
15666;DHT22;20725;51.196;3.510;2022-09-09T11:14:28;16.30;99.90
15666;DHT22;20725;51.196;3.510;2022-09-09T11:17:02;16.40;99.90
15666;DHT22;20725;51.196;3.510;2022-09-09T11:19:42;16.40;99.90
15666;DHT22;20725;51.196;3.510;2022-09-09T11:22:21;16.50;99.90
15666;DHT22;20725;51.196;3.510;2022-09-09T11:24:58;16.20;99.90
15666;DHT22;20725;51.196;3.510;2022-09-09T11:27:31;16.40;99.90
15666;DHT22;20725;51.196;3.510;2022-09-09T11:30:18;16.20;99.90
15666;DHT22;20725;51.196;3.510;2022-09-09T11:33:26;16.00;99.90
15666;DHT22;20725;51.196;3.510;2022-09-09T11:36:16;16.70;99.90
15666;DHT22;20725;51.196;3.510;2022-09-09T11:39:01;16.50;99.90
15666;DHT22;20725;51.196;3.510;2022-09-09T11:41:36;17.00;99.90
15666;DHT22;20725;51.196;3.510;2022-09-09T11:47:30;16.40;99.90
15666;DHT22;20725;51.196;3.510;2022-09-09T11:53:59;15.90;99.90
15666;DHT22;20725;51.196;3.510;2022-09-09T11:56:43;16.30;99.90
15666;DHT22;20725;51.196;3.510;2022-09-09T11:59:21;15.50;99.90
15666;DHT22;20725;51.196;3.510;2022-09-09T12:01:53;15.60;99.90
15666;DHT22;20725;51.196;3.510;2022-09-09T12:04:38;16.40;99.90
15666;DHT22;20725;51.196;3.510;2022-09-09T12:07:26;15.90;99.90
15666;DHT22;20725;51.196;3.510;2022-09-09T12:10:00;16.50;99.90
15666;DHT22;20725;51.196;3.510;2022-09-09T12:12:33;17.00;99.90
15666;DHT22;20725;51.196;3.510;2022-09-09T12:15:18;16.00;99.90
15666;DHT22;20725;51.196;3.510;2022-09-09T12:17:58;17.10;99.90
15666;DHT22;20725;51.196;3.510;2022-09-09T12:20:40;16.60;99.90
15666;DHT22;20725;51.196;3.510;2022-09-09T12:23:29;16.20;99.90
15666;DHT22;20725;51.196;3.510;2022-09-09T12:26:12;16.50;99.90
15666;DHT22;20725;51.196;3.510;2022-09-09T12:29:06;17.00;99.90
15666;DHT22;20725;51.196;3.510;2022-09-09T12:31:43;17.80;99.90
15666;DHT22;20725;51.196;3.510;2022-09-09T12:34:17;20.10;99.90
15666;DHT22;20725;51.196;3.510;2022-09-09T12:36:58;19.80;99.90
15666;DHT22;20725;51.196;3.510;2022-09-09T12:39:32;18.20;99.90
15666;DHT22;20725;51.196;3.510;2022-09-09T12:42:01;17.70;99.90
15666;DHT22;20725;51.196;3.510;2022-09-09T12:44:31;18.10;99.90
15666;DHT22;20725;51.196;3.510;2022-09-09T12:47:02;17.70;99.90
15666;DHT22;20725;51.196;3.510;2022-09-09T12:49:33;17.40;99.90
15666;DHT22;20725;51.196;3.510;2022-09-09T12:52:08;17.20;99.90
15666;DHT22;20725;51.196;3.510;2022-09-09T12:54:45;16.70;99.90
15666;DHT22;20725;51.196;3.510;2022-09-09T12:57:18;17.00;99.90
15666;DHT22;20725;51.196;3.510;2022-09-09T12:59:47;16.30;99.90
15666;DHT22;20725;51.196;3.510;2022-09-09T13:02:22;16.50;99.90
15666;DHT22;20725;51.196;3.510;2022-09-09T13:04:51;17.50;99.90
15666;DHT22;20725;51.196;3.510;2022-09-09T13:07:21;17.00;99.90
15666;DHT22;20725;51.196;3.510;2022-09-09T13:09:50;16.50;99.90
15666;DHT22;20725;51.196;3.510;2022-09-09T13:12:20;17.10;99.90
15666;DHT22;20725;51.196;3.510;2022-09-09T13:14:53;17.30;99.90
15666;DHT22;20725;51.196;3.510;2022-09-09T13:17:23;17.50;99.90
15666;DHT22;20725;51.196;3.510;2022-09-09T13:19:55;17.30;99.90
15666;DHT22;20725;51.196;3.510;2022-09-09T13:22:29;18.00;99.90
15666;DHT22;20725;51.196;3.510;2022-09-09T13:25:05;17.70;99.90
15666;DHT22;20725;51.196;3.510;2022-09-09T13:27:34;17.80;99.90
15666;DHT22;20725;51.196;3.510;2022-09-09T13:30:24;17.20;99.90
15666;DHT22;20725;51.196;3.510;2022-09-09T13:33:06;17.40;99.90
15666;DHT22;20725;51.196;3.510;2022-09-09T13:35:46;18.70;99.90
15666;DHT22;20725;51.196;3.510;2022-09-09T13:38:17;18.40;99.90
15666;DHT22;20725;51.196;3.510;2022-09-09T13:40:55;18.80;99.90
15666;DHT22;20725;51.196;3.510;2022-09-09T13:43:25;18.40;99.90
15666;DHT22;20725;51.196;3.510;2022-09-09T13:49:02;18.80;99.90
15666;DHT22;20725;51.196;3.510;2022-09-09T13:51:42;19.80;99.90
15666;DHT22;20725;51.196;3.510;2022-09-09T13:54:20;18.60;99.90
15666;DHT22;20725;51.196;3.510;2022-09-09T13:56:54;18.60;99.90
15666;DHT22;20725;51.196;3.510;2022-09-09T14:02:03;18.30;99.90
15666;DHT22;20725;51.196;3.510;2022-09-09T14:03:23;18.10;99.90
15666;DHT22;20725;51.196;3.510;2022-09-09T14:10:03;17.30;99.90
15666;DHT22;20725;51.196;3.510;2022-09-09T14:12:59;16.80;99.90
15666;DHT22;20725;51.196;3.510;2022-09-09T14:15:35;17.20;99.90
15666;DHT22;20725;51.196;3.510;2022-09-09T14:18:04;17.50;99.90
15666;DHT22;20725;51.196;3.510;2022-09-09T14:20:40;17.60;99.90
15666;DHT22;20725;51.196;3.510;2022-09-09T14:23:11;17.10;99.90
15666;DHT22;20725;51.196;3.510;2022-09-09T14:25:43;17.30;99.90
15666;DHT22;20725;51.196;3.510;2022-09-09T14:28:13;18.10;99.90
15666;DHT22;20725;51.196;3.510;2022-09-09T14:30:43;17.40;99.90
15666;DHT22;20725;51.196;3.510;2022-09-09T14:33:14;20.30;99.90
15666;DHT22;20725;51.196;3.510;2022-09-09T14:35:48;21.70;99.90
15666;DHT22;20725;51.196;3.510;2022-09-09T14:38:22;25.00;99.90
15666;DHT22;20725;51.196;3.510;2022-09-09T14:41:01;28.10;99.90
15666;DHT22;20725;51.196;3.510;2022-09-09T14:43:28;26.50;99.90
15666;DHT22;20725;51.196;3.510;2022-09-09T14:45:59;24.50;99.90
15666;DHT22;20725;51.196;3.510;2022-09-09T14:48:31;23.80;99.90
15666;DHT22;20725;51.196;3.510;2022-09-09T14:51:05;25.40;99.90
15666;DHT22;20725;51.196;3.510;2022-09-09T14:53:33;27.90;99.90
15666;DHT22;20725;51.196;3.510;2022-09-09T14:56:10;25.80;99.90
15666;DHT22;20725;51.196;3.510;2022-09-09T14:58:38;24.50;99.90
15666;DHT22;20725;51.196;3.510;2022-09-09T15:01:12;24.20;99.90
15666;DHT22;20725;51.196;3.510;2022-09-09T15:03:41;25.30;99.90
15666;DHT22;20725;51.196;3.510;2022-09-09T15:06:10;26.90;99.90
15666;DHT22;20725;51.196;3.510;2022-09-09T15:08:39;28.40;99.90
15666;DHT22;20725;51.196;3.510;2022-09-09T15:11:08;28.60;99.90
15666;DHT22;20725;51.196;3.510;2022-09-09T15:13:36;26.20;99.90
15666;DHT22;20725;51.196;3.510;2022-09-09T15:16:04;24.30;99.90
15666;DHT22;20725;51.196;3.510;2022-09-09T15:18:32;23.20;99.90
15666;DHT22;20725;51.196;3.510;2022-09-09T15:20:59;22.00;99.90
15666;DHT22;20725;51.196;3.510;2022-09-09T15:23:28;21.70;99.90
15666;DHT22;20725;51.196;3.510;2022-09-09T15:25:57;21.30;99.90
15666;DHT22;20725;51.196;3.510;2022-09-09T15:28:26;20.90;99.90
15666;DHT22;20725;51.196;3.510;2022-09-09T15:30:54;20.80;99.90
15666;DHT22;20725;51.196;3.510;2022-09-09T15:33:22;20.80;99.90
15666;DHT22;20725;51.196;3.510;2022-09-09T15:35:49;20.80;99.90
15666;DHT22;20725;51.196;3.510;2022-09-09T15:38:16;20.70;99.90
15666;DHT22;20725;51.196;3.510;2022-09-09T15:40:44;20.50;99.90
15666;DHT22;20725;51.196;3.510;2022-09-09T15:43:15;20.60;99.90
15666;DHT22;20725;51.196;3.510;2022-09-09T15:45:46;20.40;99.90
15666;DHT22;20725;51.196;3.510;2022-09-09T15:48:13;20.30;99.90
15666;DHT22;20725;51.196;3.510;2022-09-09T15:50:40;20.20;99.90
15666;DHT22;20725;51.196;3.510;2022-09-09T15:53:07;20.20;99.90
15666;DHT22;20725;51.196;3.510;2022-09-09T15:55:34;20.00;99.90
15666;DHT22;20725;51.196;3.510;2022-09-09T15:58:03;19.90;99.90
15666;DHT22;20725;51.196;3.510;2022-09-09T16:00:30;19.70;99.90
15666;DHT22;20725;51.196;3.510;2022-09-09T16:02:58;19.70;99.90
15666;DHT22;20725;51.196;3.510;2022-09-09T16:05:28;19.60;99.90
15666;DHT22;20725;51.196;3.510;2022-09-09T16:07:55;19.30;99.90
15666;DHT22;20725;51.196;3.510;2022-09-09T16:10:22;19.30;99.90
15666;DHT22;20725;51.196;3.510;2022-09-09T16:12:49;17.90;99.90
15666;DHT22;20725;51.196;3.510;2022-09-09T16:15:17;17.50;99.90
15666;DHT22;20725;51.196;3.510;2022-09-09T16:17:48;17.60;99.90
15666;DHT22;20725;51.196;3.510;2022-09-09T16:20:16;17.20;99.90
15666;DHT22;20725;51.196;3.510;2022-09-09T16:22:44;17.90;99.90
15666;DHT22;20725;51.196;3.510;2022-09-09T16:25:11;17.70;99.90